Accueil
METAR-TAF:

METAR-TAF

Aéroports :

La Chaux-de-Fonds, Suisse

Aéroport régional Les Éplatures

latitude: 47-05-03N, longitude: 006-47-37E, altitude: 1027 m

Observation

Le bulletin a été fait il y a 27 minutes, à 18:50 UTC
Vent 7 kt de sud-ouest, variant entre sud/sud-ouest et ouest
Température 1°C
Humidité 93%
Pression 988 hPa
Visibilité: 3900 m
Nuages fragmentés
neige faible

METAR: LSGC 111850Z AUTO 23007KT 210V270 3900 -SN BKN/// 01/00 Q0988

Heure: 20:17 (19:17 UTC)

Prévision

Le bulletin a été fait il y a 4 heures et 52 minutes, à 14:25 UTC
Prévision valable du 11 à 15 UTC au 11 à 24 UTC
Vent 8 kt de sud-ouest
Visibilité: 1000 m
Ciel couvert à une hauteur de 500 ft
neige
Evoluant progressivement
du 11 à 20 UTC au 11 à 22 UTC
Visibilité: 8000 m
Nuages fragmentés à une hauteur de 1000 ft

TAF: LSGC 111425Z 1115/1124 23008KT 1000 SN OVC005 BECMG 1120/1122 8000 NSW BKN010

Observations et prévisions météorologiques de plus de 4000 aéroports (messages METAR et TAF).

Les stations disponibles sont représentées par des disques jaunes et rouges sur la carte.

Passer la souris dessus pour voir le nom de la station.

Cliquer dessus pour voir les observations et prévisions météorologiques.

Pour changer de carte: cliquez sur les boutons verts avec une croix noire pour zoomer, sur le bouton vert avec un tiret pour effectuer un zoom arrière, ou sur les flèches vertes pour les cartes adjacentes.


METAR-TAF: